createdAt,value
2022-08-01T00:01:41.191Z,67.46
2022-08-01T00:03:44.243Z,67.36
2022-08-01T00:05:47.617Z,67.61
2022-08-01T00:07:50.669Z,67.68
2022-08-01T00:09:55.669Z,68.41
2022-08-01T00:12:09.350Z,67.78
2022-08-01T00:14:12.756Z,68.43
2022-08-01T00:16:16.729Z,69.26
2022-08-01T00:18:19.769Z,68.44
2022-08-01T00:20:22.842Z,68.73
2022-08-01T00:22:25.941Z,69.09
2022-08-01T00:24:29.075Z,68.09
2022-08-01T00:26:33.694Z,69.66
2022-08-01T00:28:36.940Z,70.39
2022-08-01T00:30:39.977Z,68.55
2022-08-01T00:32:43.499Z,68.70
2022-08-01T00:34:46.536Z,68.63
2022-08-01T00:36:49.582Z,68.74
2022-08-01T00:38:52.581Z,69.25
2022-08-01T00:40:55.715Z,68.81
2022-08-01T00:43:00.282Z,68.88
2022-08-01T00:45:03.300Z,69.51
2022-08-01T00:47:06.465Z,70.03
2022-08-01T00:49:10.521Z,69.71
2022-08-01T00:51:15.020Z,69.80
2022-08-01T00:53:18.881Z,68.36
2022-08-01T00:55:22.350Z,69.60
2022-08-01T00:58:03.109Z,67.72
2022-08-01T00:59:50.434Z,69.00
2022-08-01T01:01:53.842Z,68.71
2022-08-01T01:03:59.194Z,68.44
2022-08-01T01:06:14.003Z,68.83
2022-08-01T01:08:21.460Z,69.58
2022-08-01T01:10:34.144Z,69.17
2022-08-01T01:12:41.748Z,70.41
2022-08-01T01:14:49.204Z,69.65
2022-08-01T01:16:54.787Z,70.01
2022-08-01T01:19:00.326Z,70.57
2022-08-01T01:21:11.818Z,71.01
2022-08-01T01:23:26.655Z,70.71
2022-08-01T01:25:47.362Z,69.09
2022-08-01T01:27:54.055Z,69.86
2022-08-01T01:30:01.129Z,69.69
2022-08-01T01:32:08.795Z,69.48
2022-08-01T01:34:13.900Z,70.39
2022-08-01T01:36:18.868Z,69.52
2022-08-01T01:38:23.791Z,70.91
2022-08-01T01:40:28.015Z,71.08
2022-08-01T01:42:32.494Z,71.00
2022-08-01T01:44:36.176Z,72.19
2022-08-01T01:46:41.250Z,71.27
2022-08-01T01:48:46.016Z,71.20
2022-08-01T01:50:50.579Z,70.59
2022-08-01T01:52:54.571Z,71.88
2022-08-01T01:54:58.313Z,70.36
2022-08-01T01:57:03.060Z,71.02
2022-08-01T01:59:06.289Z,70.48
2022-08-01T02:01:14.795Z,71.42
2022-08-01T02:03:20.184Z,71.31
2022-08-01T02:05:23.401Z,70.88
2022-08-01T02:07:27.264Z,71.73
2022-08-01T02:09:31.408Z,71.40
2022-08-01T02:11:34.958Z,71.97
2022-08-01T02:13:39.356Z,70.46
2022-08-01T02:15:59.732Z,71.77
2022-08-01T02:18:04.321Z,70.42
2022-08-01T02:20:09.794Z,70.09
2022-08-01T02:22:16.376Z,70.46
2022-08-01T02:24:23.433Z,70.56
2022-08-01T02:26:33.908Z,70.67
2022-08-01T02:28:39.904Z,70.89
2022-08-01T02:30:46.483Z,71.71
2022-08-01T02:32:52.067Z,71.23
2022-08-01T02:34:55.991Z,70.58
2022-08-01T02:37:01.331Z,70.89
2022-08-01T02:39:08.611Z,70.71
2022-08-01T02:41:16.370Z,70.68
2022-08-01T02:43:22.809Z,70.94
2022-08-01T02:45:27.788Z,72.37
2022-08-01T02:47:31.534Z,71.14
2022-08-01T02:49:37.782Z,71.73
2022-08-01T02:51:42.195Z,70.97
2022-08-01T02:53:48.230Z,71.38
2022-08-01T02:55:52.118Z,70.89
2022-08-01T02:57:56.896Z,71.81
2022-08-01T03:00:04.140Z,71.78
2022-08-01T03:02:08.230Z,71.14
2022-08-01T03:04:13.157Z,70.86
2022-08-01T03:06:17.674Z,72.70
2022-08-01T03:08:22.181Z,70.83
2022-08-01T03:10:27.462Z,72.02
2022-08-01T03:12:32.384Z,71.23
2022-08-01T03:14:37.731Z,72.48
2022-08-01T03:16:42.908Z,72.35
2022-08-01T03:18:47.057Z,71.93
2022-08-01T03:20:51.188Z,71.28
2022-08-01T03:22:55.092Z,71.65
2022-08-01T03:25:00.222Z,72.34
2022-08-01T03:27:05.728Z,72.49
2022-08-01T03:29:11.246Z,72.18
2022-08-01T03:31:14.845Z,71.96
2022-08-01T03:33:17.995Z,73.06
2022-08-01T03:35:21.428Z,72.82
2022-08-01T03:37:26.833Z,72.12
2022-08-01T03:39:37.005Z,73.20
2022-08-01T03:41:41.791Z,73.89
2022-08-01T03:43:50.396Z,74.64
2022-08-01T03:45:54.384Z,75.23
2022-08-01T03:48:02.083Z,74.86
2022-08-01T03:50:10.635Z,73.41
2022-08-01T03:52:16.145Z,73.81
2022-08-01T03:54:22.825Z,73.93
2022-08-01T03:56:26.325Z,73.25
2022-08-01T03:58:29.852Z,73.93
2022-08-01T04:00:34.863Z,74.72
2022-08-01T04:02:41.088Z,74.01
2022-08-01T04:04:44.588Z,73.96
2022-08-01T04:06:51.258Z,74.57
2022-08-01T04:09:00.399Z,75.34
2022-08-01T04:11:03.527Z,73.55
2022-08-01T04:13:06.666Z,74.49
2022-08-01T04:15:10.322Z,74.02
2022-08-01T04:17:14.780Z,74.99
2022-08-01T04:19:17.997Z,74.82
2022-08-01T04:21:25.100Z,75.82
2022-08-01T04:23:30.122Z,74.79
2022-08-01T04:25:36.183Z,74.87
2022-08-01T04:27:50.884Z,75.29
2022-08-01T04:29:55.632Z,75.62
2022-08-01T04:31:59.111Z,76.45
2022-08-01T04:34:05.839Z,76.93
2022-08-01T04:36:10.488Z,76.35
2022-08-01T04:38:17.789Z,76.00
2022-08-01T04:40:22.826Z,76.75
2022-08-01T04:42:30.373Z,77.13
2022-08-01T04:44:36.789Z,77.06
2022-08-01T04:46:40.057Z,77.09
2022-08-01T04:48:43.540Z,77.70
2022-08-01T04:50:48.122Z,78.34
2022-08-01T04:52:52.303Z,78.47
2022-08-01T04:54:55.622Z,78.22
2022-08-01T04:57:00.789Z,78.02
2022-08-01T04:59:21.355Z,77.51
2022-08-01T05:01:24.439Z,77.21
2022-08-01T05:03:27.614Z,76.93
2022-08-01T05:05:31.513Z,76.77
2022-08-01T05:07:45.201Z,77.76
2022-08-01T05:09:48.709Z,75.89
2022-08-01T05:11:51.792Z,76.68
2022-08-01T05:13:55.284Z,77.50
2022-08-01T05:15:58.410Z,76.34
2022-08-01T05:18:02.727Z,77.69
2022-08-01T05:20:09.461Z,76.75
2022-08-01T05:22:12.722Z,76.96
2022-08-01T05:24:17.368Z,76.00
2022-08-01T05:26:20.514Z,76.72
2022-08-01T05:28:24.230Z,76.53
2022-08-01T05:30:27.418Z,75.65
2022-08-01T05:32:31.231Z,75.45
2022-08-01T05:34:34.242Z,75.28
2022-08-01T05:36:38.602Z,75.95
2022-08-01T05:38:42.117Z,76.20
2022-08-01T05:40:46.707Z,76.60
2022-08-01T05:42:49.683Z,75.54
2022-08-01T05:44:52.955Z,74.57
2022-08-01T05:46:56.155Z,72.77
2022-08-01T05:48:59.537Z,72.84
2022-08-01T05:51:02.688Z,72.65
2022-08-01T05:53:05.768Z,71.63
2022-08-01T05:55:10.282Z,71.92
2022-08-01T05:57:15.354Z,71.72
2022-08-01T05:59:18.484Z,70.88
2022-08-01T06:01:22.559Z,72.46
2022-08-01T06:03:25.629Z,71.06
2022-08-01T06:05:28.715Z,70.32
2022-08-01T06:07:31.837Z,69.25
2022-08-01T06:09:34.884Z,69.67
2022-08-01T06:11:38.032Z,69.57
2022-08-01T06:13:44.910Z,70.34
2022-08-01T06:15:52.305Z,69.39
2022-08-01T06:17:55.554Z,67.55
2022-08-01T06:19:58.745Z,67.49
2022-08-01T06:22:01.805Z,66.62
2022-08-01T06:24:05.717Z,67.71
2022-08-01T06:26:08.800Z,68.17
2022-08-01T06:28:11.792Z,67.17
2022-08-01T06:30:16.467Z,67.19
2022-08-01T06:32:26.361Z,66.43
2022-08-01T06:34:30.809Z,66.08
2022-08-01T06:36:33.904Z,65.37
2022-08-01T06:38:37.053Z,65.25
2022-08-01T06:40:40.222Z,64.68
2022-08-01T06:42:43.452Z,65.70
2022-08-01T06:44:46.713Z,66.33
2022-08-01T06:46:51.175Z,65.54
2022-08-01T06:48:54.245Z,64.17
2022-08-01T06:51:09.616Z,64.16
2022-08-01T06:53:12.658Z,64.42
2022-08-01T06:55:15.861Z,65.08
2022-08-01T06:57:19.052Z,63.87
2022-08-01T06:59:22.058Z,61.34
2022-08-01T07:01:25.158Z,62.40
2022-08-01T07:03:53.320Z,61.75
2022-08-01T07:05:52.696Z,61.20
2022-08-01T07:07:56.330Z,62.07
2022-08-01T07:09:59.389Z,60.77
2022-08-01T07:12:02.824Z,60.82
2022-08-01T07:14:06.090Z,59.97
2022-08-01T07:16:09.179Z,59.97
2022-08-01T07:18:12.237Z,60.31
2022-08-01T07:20:16.832Z,59.55
2022-08-01T07:22:23.610Z,59.43
2022-08-01T07:24:26.994Z,59.71
2022-08-01T07:26:32.144Z,59.17
2022-08-01T07:28:35.262Z,58.87
2022-08-01T07:30:47.287Z,58.58
2022-08-01T07:32:50.351Z,58.98
2022-08-01T07:34:53.435Z,57.63
2022-08-01T07:36:57.887Z,57.93
2022-08-01T07:39:00.965Z,57.84
2022-08-01T07:41:04.493Z,58.34
2022-08-01T07:43:07.626Z,58.80
2022-08-01T07:45:11.692Z,59.20
2022-08-01T07:47:15.017Z,59.19
2022-08-01T07:49:18.368Z,58.62
2022-08-01T07:51:21.509Z,57.09
2022-08-01T07:53:25.925Z,57.39
2022-08-01T07:55:28.963Z,56.89
2022-08-01T07:57:32.246Z,56.92
2022-08-01T07:59:35.489Z,56.00
2022-08-01T08:01:38.590Z,55.92
2022-08-01T08:03:41.740Z,55.90
2022-08-01T08:05:58.786Z,55.51
2022-08-01T08:08:03.334Z,56.99
2022-08-01T08:10:08.777Z,55.81
2022-08-01T08:12:13.086Z,55.16
2022-08-01T08:14:16.297Z,54.75
2022-08-01T08:16:19.509Z,55.63
2022-08-01T08:18:22.774Z,53.75
2022-08-01T08:20:28.073Z,54.35
2022-08-01T08:22:31.291Z,54.85
2022-08-01T08:24:34.335Z,54.85
2022-08-01T08:26:38.750Z,54.99
2022-08-01T08:28:43.426Z,55.05
2022-08-01T08:30:46.579Z,54.63
2022-08-01T08:32:49.878Z,54.60
2022-08-01T08:34:52.944Z,56.34
2022-08-01T08:36:57.093Z,56.09
2022-08-01T08:39:02.934Z,55.64
2022-08-01T08:41:06.397Z,56.66
2022-08-01T08:43:11.065Z,57.93
2022-08-01T08:45:14.584Z,56.93
2022-08-01T08:47:20.598Z,56.18
2022-08-01T08:49:35.827Z,56.96
2022-08-01T08:51:41.922Z,55.07
2022-08-01T08:53:45.653Z,55.65
2022-08-01T08:55:55.552Z,56.68
2022-08-01T08:58:01.713Z,55.49
2022-08-01T09:00:07.864Z,55.12
2022-08-01T09:02:12.417Z,56.48
2022-08-01T09:04:16.201Z,56.52
2022-08-01T09:06:19.491Z,56.76
2022-08-01T09:08:22.702Z,57.85
2022-08-01T09:10:25.941Z,57.65
2022-08-01T09:12:28.952Z,57.29
2022-08-01T09:14:32.475Z,57.12
2022-08-01T09:16:38.959Z,56.74
2022-08-01T09:18:44.600Z,57.48
2022-08-01T09:20:47.648Z,56.79
2022-08-01T09:22:50.713Z,57.01
2022-08-01T09:25:01.489Z,56.81
2022-08-01T09:27:18.252Z,56.50
2022-08-01T09:29:37.719Z,57.36
2022-08-01T09:31:47.165Z,57.39
2022-08-01T09:33:53.129Z,57.58
2022-08-01T09:35:57.555Z,56.88
2022-08-01T09:38:15.465Z,57.53
2022-08-01T09:40:18.814Z,56.93
2022-08-01T09:42:28.683Z,57.57
2022-08-01T09:44:42.387Z,57.17
2022-08-01T09:46:53.291Z,56.73
2022-08-01T09:49:01.313Z,55.67
2022-08-01T09:51:09.441Z,56.04
2022-08-01T09:53:29.818Z,56.02
2022-08-01T09:55:33.670Z,55.60
2022-08-01T09:57:36.758Z,55.75
2022-08-01T09:59:57.685Z,56.45
2022-08-01T10:02:03.104Z,57.63
2022-08-01T10:04:11.000Z,56.72
2022-08-01T10:06:25.029Z,55.26
2022-08-01T10:08:29.173Z,56.34
2022-08-01T10:10:33.452Z,56.81
2022-08-01T10:12:36.754Z,56.91
2022-08-01T10:14:41.287Z,56.74
2022-08-01T10:16:44.934Z,55.69
2022-08-01T10:18:50.745Z,56.94
2022-08-01T10:20:56.348Z,56.65
2022-08-01T10:23:05.916Z,57.08
2022-08-01T10:25:10.974Z,56.49
2022-08-01T10:27:24.464Z,56.63
2022-08-01T10:30:05.937Z,56.33
2022-08-01T10:32:10.282Z,55.20
2022-08-01T10:34:16.282Z,56.34
2022-08-01T10:36:22.641Z,55.63
2022-08-01T10:38:26.131Z,55.71
2022-08-01T10:40:30.983Z,55.72
2022-08-01T10:42:35.567Z,56.19
2022-08-01T10:44:40.313Z,55.65
2022-08-01T10:46:47.526Z,56.25
2022-08-01T10:48:56.934Z,55.96
2022-08-01T10:51:03.886Z,55.25
2022-08-01T10:53:16.218Z,54.55
2022-08-01T10:55:20.015Z,55.62
2022-08-01T10:57:27.530Z,54.91
2022-08-01T10:59:49.875Z,55.57
2022-08-01T11:01:59.824Z,55.69
2022-08-01T11:04:13.940Z,55.15
2022-08-01T11:06:22.970Z,55.26
2022-08-01T11:08:26.887Z,55.12
2022-08-01T11:10:36.002Z,55.29
2022-08-01T11:12:41.017Z,53.56
2022-08-01T11:15:29.211Z,55.19
2022-08-01T11:17:37.778Z,53.28
2022-08-01T11:20:08.831Z,53.81
2022-08-01T11:22:13.248Z,53.47
2022-08-01T11:24:16.371Z,53.51
2022-08-01T11:26:29.295Z,53.40
2022-08-01T11:28:37.000Z,54.08
2022-08-01T11:30:45.536Z,55.16
2022-08-01T11:33:10.585Z,55.01
2022-08-01T11:35:12.094Z,53.61
2022-08-01T11:37:30.703Z,54.64
2022-08-01T11:39:38.670Z,54.50
2022-08-01T11:41:44.262Z,54.23
2022-08-01T11:43:58.176Z,53.92
2022-08-01T11:46:02.900Z,52.72
2022-08-01T11:48:19.730Z,52.83
2022-08-01T11:50:43.403Z,53.44
2022-08-01T11:52:48.034Z,54.19
2022-08-01T11:54:53.300Z,53.72
2022-08-01T11:56:57.781Z,54.22
2022-08-01T11:59:01.529Z,54.43
2022-08-01T12:01:08.239Z,54.80
2022-08-01T12:03:15.200Z,54.01
2022-08-01T12:05:28.769Z,54.34
2022-08-01T12:07:35.837Z,54.16
2022-08-01T12:09:40.544Z,53.79
2022-08-01T12:11:43.836Z,53.35
2022-08-01T12:13:47.994Z,53.88
2022-08-01T12:15:56.469Z,54.09
2022-08-01T12:18:01.951Z,54.64
2022-08-01T12:20:07.303Z,54.35
2022-08-01T12:22:13.075Z,54.46
2022-08-01T12:24:24.185Z,54.21
2022-08-01T12:26:42.105Z,53.48
2022-08-01T12:28:45.297Z,53.98
2022-08-01T12:30:50.203Z,54.57
2022-08-01T12:32:54.701Z,54.89
2022-08-01T12:34:58.118Z,54.83
2022-08-01T12:37:04.519Z,54.56
2022-08-01T12:39:08.522Z,54.74
2022-08-01T12:41:13.208Z,53.97
2022-08-01T12:43:27.300Z,54.17
2022-08-01T12:45:34.725Z,54.84
2022-08-01T12:47:38.696Z,54.78
2022-08-01T12:49:43.844Z,54.29
2022-08-01T12:51:57.496Z,54.16
2022-08-01T12:54:01.252Z,54.45
2022-08-01T12:56:04.335Z,54.35
2022-08-01T12:58:11.504Z,54.61
2022-08-01T13:00:23.846Z,54.47
2022-08-01T13:02:34.331Z,54.67
2022-08-01T13:04:51.264Z,54.60
2022-08-01T13:06:55.950Z,55.02
2022-08-01T13:09:07.925Z,54.96
2022-08-01T13:11:15.545Z,55.78
2022-08-01T13:13:27.853Z,53.77
2022-08-01T13:15:35.537Z,54.54
2022-08-01T13:17:39.830Z,55.17
2022-08-01T13:19:47.722Z,54.22
2022-08-01T13:21:57.906Z,54.20
2022-08-01T13:24:06.180Z,54.60
2022-08-01T13:26:09.449Z,54.48
2022-08-01T13:28:20.518Z,54.26
2022-08-01T13:30:24.394Z,53.76
2022-08-01T13:32:32.409Z,53.92
2022-08-01T13:34:36.512Z,54.09
2022-08-01T13:36:42.119Z,52.26
2022-08-01T13:39:07.369Z,53.65
2022-08-01T13:41:10.678Z,53.72
2022-08-01T13:43:13.856Z,54.09
2022-08-01T13:45:17.027Z,54.22
2022-08-01T13:47:31.905Z,53.61
2022-08-01T13:49:38.330Z,53.61
2022-08-01T13:51:44.183Z,53.45
2022-08-01T13:53:47.671Z,53.35
2022-08-01T13:55:50.796Z,53.65
2022-08-01T13:57:54.145Z,53.45
2022-08-01T14:00:00.646Z,53.84
2022-08-01T14:02:04.253Z,53.96
2022-08-01T14:04:07.617Z,53.74
2022-08-01T14:06:12.825Z,53.98
2022-08-01T14:08:15.971Z,54.25
2022-08-01T14:10:20.779Z,54.29
2022-08-01T14:12:24.431Z,54.16
2022-08-01T14:14:28.152Z,55.01
2022-08-01T14:16:31.308Z,55.33
2022-08-01T14:18:34.549Z,55.13
2022-08-01T14:20:41.714Z,55.21
2022-08-01T14:22:46.202Z,55.10
2022-08-01T14:24:50.090Z,54.77
2022-08-01T14:26:53.230Z,54.83
2022-08-01T14:28:56.427Z,55.37
2022-08-01T14:31:00.262Z,55.92
2022-08-01T14:33:03.357Z,55.74
2022-08-01T14:35:07.655Z,56.09
2022-08-01T14:37:10.783Z,55.27
2022-08-01T14:39:15.374Z,55.52
2022-08-01T14:41:19.161Z,55.37
2022-08-01T14:43:28.210Z,55.66
2022-08-01T14:45:35.535Z,55.95
2022-08-01T14:47:38.917Z,56.01
2022-08-01T14:49:42.180Z,54.67
2022-08-01T14:51:48.832Z,55.46
2022-08-01T14:53:53.293Z,55.74
2022-08-01T14:55:57.940Z,55.05
2022-08-01T14:58:01.113Z,55.49
2022-08-01T15:00:05.949Z,55.26
2022-08-01T15:02:11.506Z,55.32
2022-08-01T15:04:15.166Z,54.58
2022-08-01T15:06:18.567Z,54.15
2022-08-01T15:08:21.621Z,54.70
2022-08-01T15:10:24.753Z,54.55
2022-08-01T15:12:39.742Z,53.63
2022-08-01T15:14:52.413Z,53.14
2022-08-01T15:16:55.549Z,54.13
2022-08-01T15:18:58.679Z,53.37
2022-08-01T15:21:01.850Z,53.30
2022-08-01T15:23:05.022Z,53.72
2022-08-01T15:25:08.653Z,53.75
2022-08-01T15:27:12.354Z,54.50
2022-08-01T15:29:16.801Z,54.13
2022-08-01T15:31:19.954Z,54.40
2022-08-01T15:33:23.179Z,54.49
2022-08-01T15:35:26.332Z,54.22
2022-08-01T15:37:29.753Z,54.17
2022-08-01T15:39:34.006Z,55.16
2022-08-01T15:41:37.145Z,54.13
2022-08-01T15:43:44.201Z,54.95
2022-08-01T15:45:49.948Z,54.98
2022-08-01T15:47:52.989Z,54.75
2022-08-01T15:50:00.364Z,53.92
2022-08-01T15:52:04.422Z,54.62
2022-08-01T15:54:12.794Z,54.29
2022-08-01T15:56:17.758Z,54.29
2022-08-01T15:58:21.163Z,54.26
2022-08-01T16:00:24.501Z,54.49
2022-08-01T16:02:40.751Z,54.33
2022-08-01T16:04:43.947Z,54.70
2022-08-01T16:06:47.152Z,55.65
2022-08-01T16:08:50.331Z,55.15
2022-08-01T16:10:53.436Z,54.89
2022-08-01T16:12:56.614Z,54.97
2022-08-01T16:15:02.757Z,54.73
2022-08-01T16:17:05.956Z,54.05
2022-08-01T16:19:10.597Z,54.68
2022-08-01T16:21:23.936Z,54.57
2022-08-01T16:23:27.172Z,54.96
2022-08-01T16:25:30.334Z,55.25
2022-08-01T16:27:33.392Z,54.75
2022-08-01T16:29:39.762Z,54.66
2022-08-01T16:32:02.190Z,54.38
2022-08-01T16:34:06.325Z,54.56
2022-08-01T16:36:15.921Z,54.76
2022-08-01T16:38:22.163Z,54.34
2022-08-01T16:40:25.464Z,54.44
2022-08-01T16:42:29.568Z,54.71
2022-08-01T16:44:33.886Z,55.33
2022-08-01T16:46:37.539Z,55.49
2022-08-01T16:48:41.510Z,55.55
2022-08-01T16:50:44.923Z,54.76
2022-08-01T16:52:49.551Z,55.27
2022-08-01T16:54:52.810Z,55.98
2022-08-01T16:57:08.373Z,54.88
2022-08-01T16:59:11.968Z,56.02
2022-08-01T17:01:56.234Z,55.56
2022-08-01T17:03:51.209Z,57.28
2022-08-01T17:05:56.963Z,56.62
2022-08-01T17:08:01.967Z,56.62
2022-08-01T17:10:05.736Z,56.96
2022-08-01T17:12:10.604Z,56.77
2022-08-01T17:14:13.748Z,55.87
2022-08-01T17:16:16.898Z,55.71
2022-08-01T17:18:20.332Z,56.14
2022-08-01T17:20:23.665Z,55.98
2022-08-01T17:22:26.900Z,55.78
2022-08-01T17:24:31.499Z,56.75
2022-08-01T17:26:34.708Z,57.21
2022-08-01T17:28:37.918Z,57.17
2022-08-01T17:30:41.044Z,56.21
2022-08-01T17:32:45.335Z,57.11
2022-08-01T17:34:48.418Z,57.90
2022-08-01T17:36:51.675Z,56.98
2022-08-01T17:38:54.821Z,57.30
2022-08-01T17:40:59.266Z,57.20
2022-08-01T17:43:02.248Z,56.96
2022-08-01T17:45:27.370Z,57.10
2022-08-01T17:47:49.930Z,56.17
2022-08-01T17:49:55.289Z,56.37
2022-08-01T17:51:58.896Z,56.14
2022-08-01T17:54:02.070Z,56.61
2022-08-01T17:56:06.866Z,56.73
2022-08-01T17:58:09.945Z,57.19
2022-08-01T18:00:14.247Z,57.84
2022-08-01T18:02:17.430Z,57.11
2022-08-01T18:04:20.654Z,57.40
2022-08-01T18:06:24.605Z,57.46
2022-08-01T18:08:29.932Z,57.75
2022-08-01T18:10:33.684Z,57.64
2022-08-01T18:12:38.226Z,57.83
2022-08-01T18:14:43.953Z,57.14
2022-08-01T18:16:47.121Z,57.35
2022-08-01T18:18:50.271Z,57.83
2022-08-01T18:20:53.367Z,57.84
2022-08-01T18:22:57.483Z,57.63
2022-08-01T18:25:03.876Z,57.90
2022-08-01T18:27:11.792Z,57.76
2022-08-01T18:29:16.384Z,57.90
2022-08-01T18:31:26.461Z,57.95
2022-08-01T18:33:29.757Z,59.48
2022-08-01T18:35:52.408Z,59.11
2022-08-01T18:37:57.240Z,58.50
2022-08-01T18:40:01.948Z,58.14
2022-08-01T18:42:07.096Z,59.26
2022-08-01T18:44:10.483Z,58.58
2022-08-01T18:46:15.010Z,58.69
2022-08-01T18:48:18.089Z,58.96
2022-08-01T18:50:21.143Z,58.85
2022-08-01T18:52:28.479Z,58.85
2022-08-01T18:54:34.865Z,59.42
2022-08-01T18:56:37.926Z,59.22
2022-08-01T18:58:41.726Z,60.40
2022-08-01T19:00:44.944Z,60.43
2022-08-01T19:02:49.479Z,59.97
2022-08-01T19:04:53.926Z,60.49
2022-08-01T19:06:57.013Z,59.67
2022-08-01T19:09:02.496Z,60.31
2022-08-01T19:11:05.898Z,60.10
2022-08-01T19:13:09.079Z,60.63
2022-08-01T19:15:12.368Z,61.08
2022-08-01T19:17:16.011Z,61.44
2022-08-01T19:19:27.362Z,61.13
2022-08-01T19:21:31.398Z,61.73
2022-08-01T19:23:52.062Z,61.49
2022-08-01T19:25:57.301Z,61.56
2022-08-01T19:28:01.101Z,61.82
2022-08-01T19:30:05.733Z,61.98
2022-08-01T19:32:11.190Z,62.23
2022-08-01T19:34:14.753Z,62.29
2022-08-01T19:36:20.550Z,62.60
2022-08-01T19:38:23.675Z,62.78
2022-08-01T19:40:28.402Z,63.07
2022-08-01T19:42:31.802Z,62.66
2022-08-01T19:44:35.083Z,62.77
2022-08-01T19:46:40.279Z,63.17
2022-08-01T19:48:43.403Z,63.96
2022-08-01T19:50:47.749Z,64.62
2022-08-01T19:52:53.154Z,64.12
2022-08-01T19:54:57.598Z,64.41
2022-08-01T19:57:02.459Z,64.63
2022-08-01T19:59:08.016Z,64.40
2022-08-01T20:01:14.284Z,64.92
2022-08-01T20:03:19.529Z,64.90
2022-08-01T20:05:24.758Z,64.79
2022-08-01T20:07:29.400Z,65.23
2022-08-01T20:09:34.552Z,66.36
2022-08-01T20:11:38.059Z,66.44
2022-08-01T20:13:41.501Z,66.24
2022-08-01T20:15:45.769Z,66.35
2022-08-01T20:17:48.887Z,66.41
2022-08-01T20:19:52.151Z,65.67
2022-08-01T20:22:02.465Z,65.38
2022-08-01T20:24:10.089Z,66.45
2022-08-01T20:26:17.805Z,65.61
2022-08-01T20:28:23.586Z,65.92
2022-08-01T20:30:28.453Z,66.86
2022-08-01T20:32:34.022Z,67.16
2022-08-01T20:34:38.802Z,67.64
2022-08-01T20:36:42.253Z,68.25
2022-08-01T20:38:59.044Z,67.31
2022-08-01T20:41:04.296Z,67.58
2022-08-01T20:43:09.448Z,68.15
2022-08-01T20:45:18.088Z,67.41
2022-08-01T20:47:22.311Z,67.94
2022-08-01T20:49:26.555Z,67.23
2022-08-01T20:51:29.513Z,67.92
2022-08-01T20:53:34.935Z,68.14
2022-08-01T20:55:46.363Z,69.50
2022-08-01T20:57:52.271Z,69.13
2022-08-01T21:00:01.946Z,69.50
2022-08-01T21:02:10.190Z,70.53
2022-08-01T21:04:31.878Z,69.65
2022-08-01T21:06:37.845Z,68.97
2022-08-01T21:08:43.780Z,69.13
2022-08-01T21:10:47.197Z,68.63
2022-08-01T21:13:01.801Z,68.79
2022-08-01T21:15:07.184Z,70.22
2022-08-01T21:17:13.841Z,71.29
2022-08-01T21:19:21.519Z,70.60
2022-08-01T21:21:28.155Z,70.85
2022-08-01T21:23:33.221Z,70.87
2022-08-01T21:25:36.606Z,71.94
2022-08-01T21:27:41.169Z,72.12
2022-08-01T21:29:45.572Z,72.17
2022-08-01T21:32:10.752Z,71.76
2022-08-01T21:34:14.345Z,72.41
2022-08-01T21:36:19.485Z,72.17
2022-08-01T21:38:23.384Z,71.63
2022-08-01T21:40:27.662Z,72.16
2022-08-01T21:42:30.717Z,71.88
2022-08-01T21:44:34.184Z,71.22
2022-08-01T21:46:37.443Z,71.67
2022-08-01T21:48:42.726Z,72.04
2022-08-01T21:50:50.467Z,71.99
2022-08-01T21:53:05.194Z,71.89
2022-08-01T21:55:18.970Z,72.07
2022-08-01T21:57:50.936Z,71.19
2022-08-01T22:00:00.015Z,72.17
2022-08-01T22:02:04.949Z,71.99
2022-08-01T22:04:15.010Z,72.43
2022-08-01T22:06:20.347Z,71.80
2022-08-01T22:08:29.584Z,71.58
2022-08-01T22:10:32.815Z,72.11
2022-08-01T22:12:36.663Z,73.14
2022-08-01T22:14:44.045Z,72.23
2022-08-01T22:16:47.241Z,72.29
2022-08-01T22:18:50.437Z,72.63
2022-08-01T22:20:55.205Z,72.68
2022-08-01T22:22:58.744Z,72.49
2022-08-01T22:25:01.925Z,72.80
2022-08-01T22:27:05.880Z,73.50
2022-08-01T22:29:09.170Z,73.88
2022-08-01T22:31:12.319Z,73.26
2022-08-01T22:33:17.648Z,73.37
2022-08-01T22:35:20.982Z,73.60
2022-08-01T22:37:57.173Z,73.76
2022-08-01T22:39:48.588Z,74.76
2022-08-01T22:42:01.395Z,73.91
2022-08-01T22:44:10.117Z,74.05
2022-08-01T22:46:23.333Z,74.91
2022-08-01T22:48:31.427Z,75.40
2022-08-01T22:50:44.186Z,74.90
2022-08-01T22:52:56.118Z,75.62
2022-08-01T22:55:02.937Z,75.76
2022-08-01T22:57:08.168Z,75.85
2022-08-01T22:59:16.268Z,75.55
2022-08-01T23:01:22.701Z,75.78
2022-08-01T23:03:29.156Z,76.48
2022-08-01T23:05:37.081Z,76.88
2022-08-01T23:07:41.268Z,76.78
2022-08-01T23:09:54.361Z,77.06
2022-08-01T23:12:01.011Z,77.05
2022-08-01T23:14:04.773Z,77.24
2022-08-01T23:16:08.985Z,77.29
2022-08-01T23:18:13.079Z,77.27
2022-08-01T23:20:16.898Z,76.89
2022-08-01T23:22:20.985Z,77.28
2022-08-01T23:24:24.555Z,77.17
2022-08-01T23:26:30.459Z,77.57
2022-08-01T23:28:33.936Z,77.81
2022-08-01T23:30:39.440Z,77.80
2022-08-01T23:32:42.718Z,78.12
2022-08-01T23:34:47.276Z,78.26
2022-08-01T23:36:50.343Z,78.88
2022-08-01T23:38:56.062Z,78.70
2022-08-01T23:41:00.684Z,78.83
2022-08-01T23:43:06.474Z,78.86
2022-08-01T23:45:22.130Z,79.22
2022-08-01T23:47:25.274Z,79.17
2022-08-01T23:49:28.519Z,79.28
2022-08-01T23:51:32.904Z,79.53
2022-08-01T23:53:38.597Z,79.63
2022-08-01T23:55:44.038Z,79.50
2022-08-01T23:57:47.764Z,79.47
2022-08-01T23:59:54.111Z,80.20
